sensor_id;sensor_type;location;lat;lon;timestamp;P1;durP1;ratioP1;P2;durP2;ratioP2
23444;SDS011;11895;48.738;9.320;2023-02-08T00:01:19;26.75;;;13.27;;
23444;SDS011;11895;48.738;9.320;2023-02-08T00:03:50;24.65;;;12.60;;
23444;SDS011;11895;48.738;9.320;2023-02-08T00:06:18;20.50;;;11.20;;
23444;SDS011;11895;48.738;9.320;2023-02-08T00:08:45;23.45;;;11.18;;
23444;SDS011;11895;48.738;9.320;2023-02-08T00:11:13;22.23;;;11.48;;
23444;SDS011;11895;48.738;9.320;2023-02-08T00:13:41;20.52;;;11.07;;
23444;SDS011;11895;48.738;9.320;2023-02-08T00:16:09;23.88;;;11.70;;
23444;SDS011;11895;48.738;9.320;2023-02-08T00:18:39;25.38;;;11.43;;
23444;SDS011;11895;48.738;9.320;2023-02-08T00:21:11;21.40;;;11.98;;
23444;SDS011;11895;48.738;9.320;2023-02-08T00:23:42;23.75;;;12.32;;
23444;SDS011;11895;48.738;9.320;2023-02-08T00:26:10;26.88;;;12.07;;
23444;SDS011;11895;48.738;9.320;2023-02-08T00:28:39;26.63;;;12.13;;
23444;SDS011;11895;48.738;9.320;2023-02-08T00:31:07;24.42;;;11.65;;
23444;SDS011;11895;48.738;9.320;2023-02-08T00:33:35;24.67;;;11.93;;
23444;SDS011;11895;48.738;9.320;2023-02-08T00:36:04;22.88;;;11.27;;
23444;SDS011;11895;48.738;9.320;2023-02-08T00:38:34;22.17;;;11.10;;
23444;SDS011;11895;48.738;9.320;2023-02-08T00:41:02;28.10;;;12.07;;
23444;SDS011;11895;48.738;9.320;2023-02-08T00:43:30;26.98;;;11.73;;
23444;SDS011;11895;48.738;9.320;2023-02-08T00:45:58;26.55;;;12.98;;
23444;SDS011;11895;48.738;9.320;2023-02-08T00:48:26;22.43;;;11.80;;
23444;SDS011;11895;48.738;9.320;2023-02-08T00:51:02;22.88;;;10.95;;
23444;SDS011;11895;48.738;9.320;2023-02-08T00:53:40;22.33;;;11.23;;
23444;SDS011;11895;48.738;9.320;2023-02-08T00:56:11;25.58;;;12.48;;
23444;SDS011;11895;48.738;9.320;2023-02-08T00:58:40;23.75;;;11.73;;
23444;SDS011;11895;48.738;9.320;2023-02-08T01:03:38;29.98;;;12.88;;
23444;SDS011;11895;48.738;9.320;2023-02-08T01:06:08;25.05;;;12.57;;
23444;SDS011;11895;48.738;9.320;2023-02-08T01:08:40;25.60;;;11.80;;
23444;SDS011;11895;48.738;9.320;2023-02-08T01:11:10;23.10;;;11.10;;
23444;SDS011;11895;48.738;9.320;2023-02-08T01:13:44;26.55;;;11.35;;
23444;SDS011;11895;48.738;9.320;2023-02-08T01:16:16;24.92;;;11.68;;
23444;SDS011;11895;48.738;9.320;2023-02-08T01:21:21;23.55;;;10.23;;
23444;SDS011;11895;48.738;9.320;2023-02-08T01:23:57;23.08;;;12.40;;
23444;SDS011;11895;48.738;9.320;2023-02-08T01:26:28;24.05;;;12.05;;
23444;SDS011;11895;48.738;9.320;2023-02-08T01:28:57;26.42;;;12.55;;
23444;SDS011;11895;48.738;9.320;2023-02-08T01:31:26;24.48;;;12.25;;
23444;SDS011;11895;48.738;9.320;2023-02-08T01:33:58;26.77;;;11.50;;
23444;SDS011;11895;48.738;9.320;2023-02-08T01:36:28;23.63;;;11.05;;
23444;SDS011;11895;48.738;9.320;2023-02-08T01:38:58;25.60;;;11.65;;
23444;SDS011;11895;48.738;9.320;2023-02-08T01:41:28;20.90;;;10.93;;
23444;SDS011;11895;48.738;9.320;2023-02-08T01:46:40;25.90;;;11.75;;
23444;SDS011;11895;48.738;9.320;2023-02-08T01:51:47;24.13;;;11.30;;
23444;SDS011;11895;48.738;9.320;2023-02-08T01:54:33;27.20;;;12.70;;
23444;SDS011;11895;48.738;9.320;2023-02-08T01:57:13;27.92;;;11.77;;
23444;SDS011;11895;48.738;9.320;2023-02-08T02:02:21;27.52;;;12.27;;
23444;SDS011;11895;48.738;9.320;2023-02-08T02:04:52;17.92;;;10.95;;
23444;SDS011;11895;48.738;9.320;2023-02-08T02:07:20;24.50;;;11.05;;
23444;SDS011;11895;48.738;9.320;2023-02-08T02:09:52;25.40;;;11.90;;
23444;SDS011;11895;48.738;9.320;2023-02-08T02:12:33;23.95;;;11.13;;
23444;SDS011;11895;48.738;9.320;2023-02-08T02:15:03;24.83;;;12.43;;
23444;SDS011;11895;48.738;9.320;2023-02-08T02:17:34;23.25;;;12.57;;
23444;SDS011;11895;48.738;9.320;2023-02-08T02:40:49;22.48;;;11.40;;
23444;SDS011;11895;48.738;9.320;2023-02-08T02:44:11;25.75;;;11.32;;
23444;SDS011;11895;48.738;9.320;2023-02-08T02:47:10;28.55;;;12.07;;
23444;SDS011;11895;48.738;9.320;2023-02-08T02:49:53;25.50;;;11.50;;
23444;SDS011;11895;48.738;9.320;2023-02-08T02:52:30;20.15;;;10.88;;
23444;SDS011;11895;48.738;9.320;2023-02-08T02:55:16;23.17;;;10.88;;
23444;SDS011;11895;48.738;9.320;2023-02-08T02:57:49;23.38;;;11.85;;
23444;SDS011;11895;48.738;9.320;2023-02-08T03:00:23;23.75;;;10.38;;
23444;SDS011;11895;48.738;9.320;2023-02-08T03:02:54;20.67;;;10.73;;
23444;SDS011;11895;48.738;9.320;2023-02-08T03:05:24;21.23;;;11.05;;
23444;SDS011;11895;48.738;9.320;2023-02-08T03:16:59;24.33;;;12.13;;
23444;SDS011;11895;48.738;9.320;2023-02-08T03:22:57;23.75;;;11.63;;
23444;SDS011;11895;48.738;9.320;2023-02-08T03:28:57;22.10;;;11.65;;
23444;SDS011;11895;48.738;9.320;2023-02-08T03:31:27;20.80;;;10.95;;
23444;SDS011;11895;48.738;9.320;2023-02-08T03:34:09;22.83;;;10.82;;
23444;SDS011;11895;48.738;9.320;2023-02-08T03:37:12;21.73;;;11.00;;
23444;SDS011;11895;48.738;9.320;2023-02-08T03:40:00;21.73;;;11.00;;
23444;SDS011;11895;48.738;9.320;2023-02-08T03:42:37;20.60;;;10.30;;
23444;SDS011;11895;48.738;9.320;2023-02-08T03:45:10;25.20;;;10.95;;
23444;SDS011;11895;48.738;9.320;2023-02-08T03:47:46;27.02;;;11.55;;
23444;SDS011;11895;48.738;9.320;2023-02-08T03:50:19;23.25;;;10.70;;
23444;SDS011;11895;48.738;9.320;2023-02-08T03:52:49;21.73;;;11.15;;
23444;SDS011;11895;48.738;9.320;2023-02-08T03:55:23;27.67;;;11.85;;
23444;SDS011;11895;48.738;9.320;2023-02-08T03:57:56;25.75;;;11.27;;
23444;SDS011;11895;48.738;9.320;2023-02-08T04:00:41;25.25;;;12.07;;
23444;SDS011;11895;48.738;9.320;2023-02-08T04:03:16;22.08;;;10.55;;
23444;SDS011;11895;48.738;9.320;2023-02-08T04:05:50;22.98;;;10.55;;
23444;SDS011;11895;48.738;9.320;2023-02-08T04:08:18;23.45;;;10.50;;
23444;SDS011;11895;48.738;9.320;2023-02-08T04:10:47;21.60;;;11.35;;
23444;SDS011;11895;48.738;9.320;2023-02-08T04:13:15;24.92;;;12.07;;
23444;SDS011;11895;48.738;9.320;2023-02-08T04:15:43;22.90;;;11.00;;
23444;SDS011;11895;48.738;9.320;2023-02-08T04:18:10;26.27;;;10.52;;
23444;SDS011;11895;48.738;9.320;2023-02-08T04:20:38;25.38;;;12.30;;
23444;SDS011;11895;48.738;9.320;2023-02-08T04:23:06;25.17;;;11.85;;
23444;SDS011;11895;48.738;9.320;2023-02-08T04:25:34;24.08;;;11.73;;
23444;SDS011;11895;48.738;9.320;2023-02-08T04:28:01;23.50;;;11.90;;
23444;SDS011;11895;48.738;9.320;2023-02-08T04:30:29;27.40;;;12.38;;
23444;SDS011;11895;48.738;9.320;2023-02-08T04:32:57;24.60;;;11.77;;
23444;SDS011;11895;48.738;9.320;2023-02-08T04:35:25;23.25;;;11.10;;
23444;SDS011;11895;48.738;9.320;2023-02-08T04:37:53;22.65;;;10.90;;
23444;SDS011;11895;48.738;9.320;2023-02-08T04:40:20;22.38;;;11.30;;
23444;SDS011;11895;48.738;9.320;2023-02-08T04:42:48;25.08;;;11.73;;
23444;SDS011;11895;48.738;9.320;2023-02-08T04:45:16;25.65;;;11.57;;
23444;SDS011;11895;48.738;9.320;2023-02-08T04:47:43;24.05;;;11.18;;
23444;SDS011;11895;48.738;9.320;2023-02-08T04:50:16;27.95;;;12.77;;
23444;SDS011;11895;48.738;9.320;2023-02-08T04:52:44;26.23;;;11.48;;
23444;SDS011;11895;48.738;9.320;2023-02-08T04:55:12;24.42;;;11.40;;
23444;SDS011;11895;48.738;9.320;2023-02-08T04:57:39;26.95;;;12.68;;
23444;SDS011;11895;48.738;9.320;2023-02-08T05:00:07;34.75;;;12.13;;
23444;SDS011;11895;48.738;9.320;2023-02-08T05:02:35;25.90;;;11.40;;
23444;SDS011;11895;48.738;9.320;2023-02-08T05:05:04;22.80;;;12.38;;
23444;SDS011;11895;48.738;9.320;2023-02-08T05:07:32;28.17;;;13.07;;
23444;SDS011;11895;48.738;9.320;2023-02-08T05:10:00;24.10;;;12.18;;
23444;SDS011;11895;48.738;9.320;2023-02-08T05:12:29;30.50;;;12.43;;
23444;SDS011;11895;48.738;9.320;2023-02-08T05:14:57;25.13;;;11.25;;
23444;SDS011;11895;48.738;9.320;2023-02-08T05:17:25;28.55;;;13.10;;
23444;SDS011;11895;48.738;9.320;2023-02-08T05:19:53;25.38;;;12.38;;
23444;SDS011;11895;48.738;9.320;2023-02-08T05:22:21;27.63;;;13.00;;
23444;SDS011;11895;48.738;9.320;2023-02-08T05:24:48;29.70;;;13.93;;
23444;SDS011;11895;48.738;9.320;2023-02-08T05:27:16;25.23;;;13.02;;
23444;SDS011;11895;48.738;9.320;2023-02-08T05:29:44;32.45;;;12.57;;
23444;SDS011;11895;48.738;9.320;2023-02-08T05:32:12;26.45;;;12.57;;
23444;SDS011;11895;48.738;9.320;2023-02-08T05:34:39;26.50;;;12.65;;
23444;SDS011;11895;48.738;9.320;2023-02-08T05:37:07;28.17;;;12.80;;
23444;SDS011;11895;48.738;9.320;2023-02-08T05:39:35;27.25;;;12.05;;
23444;SDS011;11895;48.738;9.320;2023-02-08T05:42:03;22.90;;;10.82;;
23444;SDS011;11895;48.738;9.320;2023-02-08T05:44:31;24.73;;;12.45;;
23444;SDS011;11895;48.738;9.320;2023-02-08T05:46:59;22.73;;;12.03;;
23444;SDS011;11895;48.738;9.320;2023-02-08T05:49:27;24.50;;;11.38;;
23444;SDS011;11895;48.738;9.320;2023-02-08T05:51:55;23.40;;;11.90;;
23444;SDS011;11895;48.738;9.320;2023-02-08T05:54:22;32.50;;;11.98;;
23444;SDS011;11895;48.738;9.320;2023-02-08T05:56:50;21.10;;;11.32;;
23444;SDS011;11895;48.738;9.320;2023-02-08T05:59:18;25.08;;;12.13;;
23444;SDS011;11895;48.738;9.320;2023-02-08T06:01:45;27.45;;;11.68;;
23444;SDS011;11895;48.738;9.320;2023-02-08T06:04:13;24.23;;;12.05;;
23444;SDS011;11895;48.738;9.320;2023-02-08T06:06:41;22.55;;;11.60;;
23444;SDS011;11895;48.738;9.320;2023-02-08T06:09:08;24.52;;;11.90;;
23444;SDS011;11895;48.738;9.320;2023-02-08T06:11:36;24.23;;;11.57;;
23444;SDS011;11895;48.738;9.320;2023-02-08T06:14:03;26.83;;;12.40;;
23444;SDS011;11895;48.738;9.320;2023-02-08T06:16:31;25.27;;;12.45;;
23444;SDS011;11895;48.738;9.320;2023-02-08T06:18:59;24.35;;;11.70;;
23444;SDS011;11895;48.738;9.320;2023-02-08T06:21:52;25.13;;;12.02;;
23444;SDS011;11895;48.738;9.320;2023-02-08T06:24:20;26.73;;;12.38;;
23444;SDS011;11895;48.738;9.320;2023-02-08T06:26:48;27.00;;;12.32;;
23444;SDS011;11895;48.738;9.320;2023-02-08T06:29:16;23.50;;;11.68;;
23444;SDS011;11895;48.738;9.320;2023-02-08T06:31:49;24.95;;;12.30;;
23444;SDS011;11895;48.738;9.320;2023-02-08T06:34:17;24.20;;;11.60;;
23444;SDS011;11895;48.738;9.320;2023-02-08T06:36:45;24.77;;;12.02;;
23444;SDS011;11895;48.738;9.320;2023-02-08T06:39:13;25.40;;;11.98;;
23444;SDS011;11895;48.738;9.320;2023-02-08T06:41:40;22.95;;;11.00;;
23444;SDS011;11895;48.738;9.320;2023-02-08T06:44:08;24.80;;;12.23;;
23444;SDS011;11895;48.738;9.320;2023-02-08T06:46:36;29.00;;;12.77;;
23444;SDS011;11895;48.738;9.320;2023-02-08T06:49:03;23.40;;;12.10;;
23444;SDS011;11895;48.738;9.320;2023-02-08T06:51:31;33.25;;;12.18;;
23444;SDS011;11895;48.738;9.320;2023-02-08T06:53:59;31.38;;;12.52;;
23444;SDS011;11895;48.738;9.320;2023-02-08T06:56:26;35.88;;;13.18;;
23444;SDS011;11895;48.738;9.320;2023-02-08T06:58:55;40.80;;;14.55;;
23444;SDS011;11895;48.738;9.320;2023-02-08T07:01:23;40.05;;;14.93;;
23444;SDS011;11895;48.738;9.320;2023-02-08T07:03:51;34.13;;;14.32;;
23444;SDS011;11895;48.738;9.320;2023-02-08T07:06:19;32.72;;;15.15;;
23444;SDS011;11895;48.738;9.320;2023-02-08T07:08:46;41.40;;;16.83;;
23444;SDS011;11895;48.738;9.320;2023-02-08T07:11:15;31.60;;;13.77;;
23444;SDS011;11895;48.738;9.320;2023-02-08T07:13:46;30.88;;;14.70;;
23444;SDS011;11895;48.738;9.320;2023-02-08T07:16:18;27.08;;;13.95;;
23444;SDS011;11895;48.738;9.320;2023-02-08T07:18:46;29.10;;;14.55;;
23444;SDS011;11895;48.738;9.320;2023-02-08T07:21:16;29.05;;;14.30;;
23444;SDS011;11895;48.738;9.320;2023-02-08T07:23:44;28.63;;;13.45;;
23444;SDS011;11895;48.738;9.320;2023-02-08T07:26:12;32.55;;;14.30;;
23444;SDS011;11895;48.738;9.320;2023-02-08T07:28:40;38.10;;;14.23;;
23444;SDS011;11895;48.738;9.320;2023-02-08T07:31:09;32.17;;;13.57;;
23444;SDS011;11895;48.738;9.320;2023-02-08T07:33:40;27.55;;;13.25;;
23444;SDS011;11895;48.738;9.320;2023-02-08T07:36:08;41.42;;;15.23;;
23444;SDS011;11895;48.738;9.320;2023-02-08T07:38:37;33.38;;;14.45;;
23444;SDS011;11895;48.738;9.320;2023-02-08T07:41:09;37.20;;;14.90;;
23444;SDS011;11895;48.738;9.320;2023-02-08T07:43:39;31.52;;;14.52;;
23444;SDS011;11895;48.738;9.320;2023-02-08T07:46:20;37.30;;;14.10;;
23444;SDS011;11895;48.738;9.320;2023-02-08T07:48:48;30.40;;;13.95;;
23444;SDS011;11895;48.738;9.320;2023-02-08T07:51:21;27.60;;;14.55;;
23444;SDS011;11895;48.738;9.320;2023-02-08T07:53:49;33.03;;;13.73;;
23444;SDS011;11895;48.738;9.320;2023-02-08T07:56:17;29.38;;;13.95;;
23444;SDS011;11895;48.738;9.320;2023-02-08T07:58:45;28.27;;;14.20;;
23444;SDS011;11895;48.738;9.320;2023-02-08T08:01:13;29.65;;;13.65;;
23444;SDS011;11895;48.738;9.320;2023-02-08T08:03:50;29.25;;;13.65;;
23444;SDS011;11895;48.738;9.320;2023-02-08T08:06:18;28.33;;;13.93;;
23444;SDS011;11895;48.738;9.320;2023-02-08T08:08:48;31.60;;;13.45;;
23444;SDS011;11895;48.738;9.320;2023-02-08T08:11:17;33.92;;;14.82;;
23444;SDS011;11895;48.738;9.320;2023-02-08T08:13:46;27.35;;;14.05;;
23444;SDS011;11895;48.738;9.320;2023-02-08T08:16:14;35.83;;;15.45;;
23444;SDS011;11895;48.738;9.320;2023-02-08T08:18:43;33.03;;;15.20;;
23444;SDS011;11895;48.738;9.320;2023-02-08T08:21:11;28.00;;;14.20;;
23444;SDS011;11895;48.738;9.320;2023-02-08T08:23:40;33.97;;;14.98;;
23444;SDS011;11895;48.738;9.320;2023-02-08T08:26:09;31.70;;;14.67;;
23444;SDS011;11895;48.738;9.320;2023-02-08T08:28:46;31.77;;;14.93;;
23444;SDS011;11895;48.738;9.320;2023-02-08T08:31:15;30.27;;;14.55;;
23444;SDS011;11895;48.738;9.320;2023-02-08T08:33:46;33.08;;;14.25;;
23444;SDS011;11895;48.738;9.320;2023-02-08T08:36:14;31.98;;;15.30;;
23444;SDS011;11895;48.738;9.320;2023-02-08T08:38:42;35.17;;;15.70;;
23444;SDS011;11895;48.738;9.320;2023-02-08T08:41:10;33.03;;;15.25;;
23444;SDS011;11895;48.738;9.320;2023-02-08T08:43:42;31.27;;;14.98;;
23444;SDS011;11895;48.738;9.320;2023-02-08T08:46:11;37.28;;;15.65;;
23444;SDS011;11895;48.738;9.320;2023-02-08T08:48:39;34.30;;;13.93;;
23444;SDS011;11895;48.738;9.320;2023-02-08T08:51:11;33.08;;;14.68;;
23444;SDS011;11895;48.738;9.320;2023-02-08T08:53:40;28.52;;;14.15;;
23444;SDS011;11895;48.738;9.320;2023-02-08T08:56:08;29.38;;;13.93;;
23444;SDS011;11895;48.738;9.320;2023-02-08T08:58:35;34.55;;;16.33;;
23444;SDS011;11895;48.738;9.320;2023-02-08T09:01:03;31.48;;;13.82;;
23444;SDS011;11895;48.738;9.320;2023-02-08T09:03:31;26.48;;;14.05;;
23444;SDS011;11895;48.738;9.320;2023-02-08T09:05:59;23.25;;;13.13;;
23444;SDS011;11895;48.738;9.320;2023-02-08T09:08:27;26.30;;;14.20;;
23444;SDS011;11895;48.738;9.320;2023-02-08T09:10:54;26.58;;;13.50;;
23444;SDS011;11895;48.738;9.320;2023-02-08T09:13:22;26.08;;;14.15;;
23444;SDS011;11895;48.738;9.320;2023-02-08T09:15:50;30.60;;;14.20;;
23444;SDS011;11895;48.738;9.320;2023-02-08T09:18:18;29.23;;;14.70;;
23444;SDS011;11895;48.738;9.320;2023-02-08T09:20:48;28.23;;;14.18;;
23444;SDS011;11895;48.738;9.320;2023-02-08T09:23:16;23.08;;;12.27;;
23444;SDS011;11895;48.738;9.320;2023-02-08T09:25:43;27.63;;;13.00;;
23444;SDS011;11895;48.738;9.320;2023-02-08T09:28:11;24.55;;;12.98;;
23444;SDS011;11895;48.738;9.320;2023-02-08T09:30:39;25.42;;;13.52;;
23444;SDS011;11895;48.738;9.320;2023-02-08T09:33:08;30.92;;;12.80;;
23444;SDS011;11895;48.738;9.320;2023-02-08T09:35:35;32.38;;;11.80;;
23444;SDS011;11895;48.738;9.320;2023-02-08T09:38:03;20.67;;;10.57;;
23444;SDS011;11895;48.738;9.320;2023-02-08T09:43:12;19.27;;;10.55;;
23444;SDS011;11895;48.738;9.320;2023-02-08T09:46:04;21.30;;;11.05;;
23444;SDS011;11895;48.738;9.320;2023-02-08T09:48:42;20.80;;;10.57;;
23444;SDS011;11895;48.738;9.320;2023-02-08T09:53:57;24.83;;;11.85;;
23444;SDS011;11895;48.738;9.320;2023-02-08T09:56:35;24.20;;;11.65;;
23444;SDS011;11895;48.738;9.320;2023-02-08T09:59:23;21.27;;;10.20;;
23444;SDS011;11895;48.738;9.320;2023-02-08T10:02:13;20.45;;;10.75;;
23444;SDS011;11895;48.738;9.320;2023-02-08T10:05:09;20.98;;;10.23;;
23444;SDS011;11895;48.738;9.320;2023-02-08T10:07:48;20.92;;;10.82;;
23444;SDS011;11895;48.738;9.320;2023-02-08T10:10:30;20.35;;;10.45;;
23444;SDS011;11895;48.738;9.320;2023-02-08T10:19:53;19.88;;;10.00;;
23444;SDS011;11895;48.738;9.320;2023-02-08T10:23:09;24.52;;;12.93;;
23444;SDS011;11895;48.738;9.320;2023-02-08T10:26:02;24.73;;;12.48;;
23444;SDS011;11895;48.738;9.320;2023-02-08T10:37:18;26.10;;;13.95;;
23444;SDS011;11895;48.738;9.320;2023-02-08T10:40:13;24.77;;;13.35;;
23444;SDS011;11895;48.738;9.320;2023-02-08T10:42:45;24.45;;;13.13;;
23444;SDS011;11895;48.738;9.320;2023-02-08T10:45:25;24.42;;;12.60;;
23444;SDS011;11895;48.738;9.320;2023-02-08T10:48:04;24.75;;;13.32;;
23444;SDS011;11895;48.738;9.320;2023-02-08T10:50:43;24.90;;;13.45;;
23444;SDS011;11895;48.738;9.320;2023-02-08T10:53:14;25.48;;;12.60;;
23444;SDS011;11895;48.738;9.320;2023-02-08T10:55:47;24.25;;;11.63;;
23444;SDS011;11895;48.738;9.320;2023-02-08T10:58:17;22.40;;;9.75;;
23444;SDS011;11895;48.738;9.320;2023-02-08T11:00:48;20.42;;;10.15;;
23444;SDS011;11895;48.738;9.320;2023-02-08T11:03:22;18.27;;;9.93;;
23444;SDS011;11895;48.738;9.320;2023-02-08T11:05:51;17.38;;;9.38;;
23444;SDS011;11895;48.738;9.320;2023-02-08T11:08:24;17.30;;;9.37;;
23444;SDS011;11895;48.738;9.320;2023-02-08T11:11:06;20.13;;;10.40;;
23444;SDS011;11895;48.738;9.320;2023-02-08T11:13:41;22.73;;;10.20;;
23444;SDS011;11895;48.738;9.320;2023-02-08T11:16:12;15.88;;;9.25;;
23444;SDS011;11895;48.738;9.320;2023-02-08T11:18:50;17.15;;;9.27;;
23444;SDS011;11895;48.738;9.320;2023-02-08T11:21:33;18.40;;;9.68;;
23444;SDS011;11895;48.738;9.320;2023-02-08T11:29:22;16.23;;;8.68;;
23444;SDS011;11895;48.738;9.320;2023-02-08T11:34:27;19.37;;;10.03;;
23444;SDS011;11895;48.738;9.320;2023-02-08T11:37:14;15.55;;;9.02;;
23444;SDS011;11895;48.738;9.320;2023-02-08T11:39:49;19.73;;;9.35;;
23444;SDS011;11895;48.738;9.320;2023-02-08T11:42:22;17.65;;;8.70;;
23444;SDS011;11895;48.738;9.320;2023-02-08T11:45:02;17.40;;;7.95;;
23444;SDS011;11895;48.738;9.320;2023-02-08T11:47:33;18.33;;;8.13;;
23444;SDS011;11895;48.738;9.320;2023-02-08T11:50:04;17.50;;;8.45;;
23444;SDS011;11895;48.738;9.320;2023-02-08T11:57:59;16.20;;;9.07;;
23444;SDS011;11895;48.738;9.320;2023-02-08T12:00:56;20.10;;;9.10;;
23444;SDS011;11895;48.738;9.320;2023-02-08T12:03:35;16.85;;;8.57;;
23444;SDS011;11895;48.738;9.320;2023-02-08T12:09:17;18.23;;;8.60;;
23444;SDS011;11895;48.738;9.320;2023-02-08T12:21:21;17.23;;;8.82;;
23444;SDS011;11895;48.738;9.320;2023-02-08T12:23:55;19.08;;;8.73;;
23444;SDS011;11895;48.738;9.320;2023-02-08T12:41:30;15.20;;;8.43;;
23444;SDS011;11895;48.738;9.320;2023-02-08T12:49:55;15.70;;;8.65;;
23444;SDS011;11895;48.738;9.320;2023-02-08T12:53:01;14.23;;;8.25;;
23444;SDS011;11895;48.738;9.320;2023-02-08T12:55:47;15.25;;;8.52;;
23444;SDS011;11895;48.738;9.320;2023-02-08T12:58:32;13.35;;;8.63;;
23444;SDS011;11895;48.738;9.320;2023-02-08T13:01:35;14.30;;;8.60;;
23444;SDS011;11895;48.738;9.320;2023-02-08T13:04:22;16.25;;;8.68;;
23444;SDS011;11895;48.738;9.320;2023-02-08T13:06:56;16.37;;;9.17;;
23444;SDS011;11895;48.738;9.320;2023-02-08T13:12:03;12.77;;;7.63;;
23444;SDS011;11895;48.738;9.320;2023-02-08T13:17:29;12.82;;;7.85;;
23444;SDS011;11895;48.738;9.320;2023-02-08T13:23:17;12.95;;;7.93;;
23444;SDS011;11895;48.738;9.320;2023-02-08T13:28:54;16.30;;;8.07;;
23444;SDS011;11895;48.738;9.320;2023-02-08T13:31:29;15.68;;;8.55;;
23444;SDS011;11895;48.738;9.320;2023-02-08T13:37:02;18.70;;;9.38;;
23444;SDS011;11895;48.738;9.320;2023-02-08T13:42:39;18.83;;;9.07;;
23444;SDS011;11895;48.738;9.320;2023-02-08T13:45:27;12.88;;;8.13;;
23444;SDS011;11895;48.738;9.320;2023-02-08T13:48:03;15.13;;;8.93;;
23444;SDS011;11895;48.738;9.320;2023-02-08T14:02:20;17.38;;;9.93;;
23444;SDS011;11895;48.738;9.320;2023-02-08T14:04:53;17.15;;;10.85;;
23444;SDS011;11895;48.738;9.320;2023-02-08T14:08:02;18.52;;;10.77;;
23444;SDS011;11895;48.738;9.320;2023-02-08T14:10:40;17.08;;;10.30;;
23444;SDS011;11895;48.738;9.320;2023-02-08T14:18:55;16.23;;;10.75;;
23444;SDS011;11895;48.738;9.320;2023-02-08T14:21:36;19.40;;;10.60;;
23444;SDS011;11895;48.738;9.320;2023-02-08T14:29:42;16.08;;;10.93;;
23444;SDS011;11895;48.738;9.320;2023-02-08T14:32:24;15.95;;;10.45;;
23444;SDS011;11895;48.738;9.320;2023-02-08T14:37:35;22.15;;;10.57;;
23444;SDS011;11895;48.738;9.320;2023-02-08T14:47:54;17.10;;;11.23;;
23444;SDS011;11895;48.738;9.320;2023-02-08T14:50:30;16.52;;;10.73;;
23444;SDS011;11895;48.738;9.320;2023-02-08T14:53:04;18.83;;;10.75;;
23444;SDS011;11895;48.738;9.320;2023-02-08T14:56:01;21.48;;;11.25;;
23444;SDS011;11895;48.738;9.320;2023-02-08T14:59:13;17.23;;;11.27;;
23444;SDS011;11895;48.738;9.320;2023-02-08T15:01:47;16.88;;;10.43;;
23444;SDS011;11895;48.738;9.320;2023-02-08T15:04:22;19.42;;;12.73;;
23444;SDS011;11895;48.738;9.320;2023-02-08T15:09:36;21.25;;;11.40;;
23444;SDS011;11895;48.738;9.320;2023-02-08T15:12:13;16.17;;;11.02;;
23444;SDS011;11895;48.738;9.320;2023-02-08T15:14:53;20.17;;;11.63;;
23444;SDS011;11895;48.738;9.320;2023-02-08T15:17:34;22.30;;;13.07;;
23444;SDS011;11895;48.738;9.320;2023-02-08T15:25:54;20.52;;;13.43;;
23444;SDS011;11895;48.738;9.320;2023-02-08T15:28:25;22.38;;;12.15;;
23444;SDS011;11895;48.738;9.320;2023-02-08T15:31:01;24.15;;;14.05;;
23444;SDS011;11895;48.738;9.320;2023-02-08T15:33:32;21.67;;;13.18;;
23444;SDS011;11895;48.738;9.320;2023-02-08T15:36:07;20.73;;;13.00;;
23444;SDS011;11895;48.738;9.320;2023-02-08T15:38:54;23.65;;;12.63;;
23444;SDS011;11895;48.738;9.320;2023-02-08T15:41:26;20.00;;;13.45;;
23444;SDS011;11895;48.738;9.320;2023-02-08T15:44:21;22.13;;;13.02;;
23444;SDS011;11895;48.738;9.320;2023-02-08T15:46:51;20.17;;;12.20;;
23444;SDS011;11895;48.738;9.320;2023-02-08T15:49:23;21.48;;;12.20;;
23444;SDS011;11895;48.738;9.320;2023-02-08T15:51:57;19.98;;;11.55;;
23444;SDS011;11895;48.738;9.320;2023-02-08T15:54:26;22.85;;;13.57;;
23444;SDS011;11895;48.738;9.320;2023-02-08T15:59:32;23.52;;;13.45;;
23444;SDS011;11895;48.738;9.320;2023-02-08T16:04:55;21.52;;;12.82;;
23444;SDS011;11895;48.738;9.320;2023-02-08T16:10:06;22.63;;;13.32;;
23444;SDS011;11895;48.738;9.320;2023-02-08T16:13:05;22.50;;;13.10;;
23444;SDS011;11895;48.738;9.320;2023-02-08T16:15:48;23.38;;;12.75;;
23444;SDS011;11895;48.738;9.320;2023-02-08T16:18:38;24.40;;;14.00;;
23444;SDS011;11895;48.738;9.320;2023-02-08T16:21:19;23.55;;;14.10;;
23444;SDS011;11895;48.738;9.320;2023-02-08T16:23:54;23.23;;;13.48;;
23444;SDS011;11895;48.738;9.320;2023-02-08T16:26:25;25.60;;;14.60;;
23444;SDS011;11895;48.738;9.320;2023-02-08T16:29:04;26.27;;;14.50;;
23444;SDS011;11895;48.738;9.320;2023-02-08T16:31:43;23.75;;;14.38;;
23444;SDS011;11895;48.738;9.320;2023-02-08T16:34:14;25.75;;;14.07;;
23444;SDS011;11895;48.738;9.320;2023-02-08T16:36:45;25.15;;;13.77;;
23444;SDS011;11895;48.738;9.320;2023-02-08T16:41:58;25.90;;;14.45;;
23444;SDS011;11895;48.738;9.320;2023-02-08T16:44:56;30.40;;;16.02;;
23444;SDS011;11895;48.738;9.320;2023-02-08T16:53:09;27.60;;;14.30;;
23444;SDS011;11895;48.738;9.320;2023-02-08T16:55:38;27.98;;;15.18;;
23444;SDS011;11895;48.738;9.320;2023-02-08T16:58:14;30.15;;;15.15;;
23444;SDS011;11895;48.738;9.320;2023-02-08T17:00:42;28.65;;;15.55;;
23444;SDS011;11895;48.738;9.320;2023-02-08T17:03:11;30.27;;;15.18;;
23444;SDS011;11895;48.738;9.320;2023-02-08T17:05:39;32.15;;;15.85;;
23444;SDS011;11895;48.738;9.320;2023-02-08T17:08:09;29.00;;;15.80;;
23444;SDS011;11895;48.738;9.320;2023-02-08T17:10:42;30.50;;;15.50;;
23444;SDS011;11895;48.738;9.320;2023-02-08T17:13:11;43.47;;;19.00;;
23444;SDS011;11895;48.738;9.320;2023-02-08T17:15:46;45.42;;;19.35;;
23444;SDS011;11895;48.738;9.320;2023-02-08T17:18:16;39.20;;;18.73;;
23444;SDS011;11895;48.738;9.320;2023-02-08T17:20:48;34.40;;;18.77;;
23444;SDS011;11895;48.738;9.320;2023-02-08T17:23:22;35.67;;;17.63;;
23444;SDS011;11895;48.738;9.320;2023-02-08T17:25:51;30.17;;;16.08;;
23444;SDS011;11895;48.738;9.320;2023-02-08T17:28:19;27.23;;;15.75;;
23444;SDS011;11895;48.738;9.320;2023-02-08T17:30:48;33.60;;;16.50;;
23444;SDS011;11895;48.738;9.320;2023-02-08T17:33:16;29.00;;;15.52;;
23444;SDS011;11895;48.738;9.320;2023-02-08T17:35:46;30.43;;;16.10;;
23444;SDS011;11895;48.738;9.320;2023-02-08T17:38:16;25.40;;;14.70;;
23444;SDS011;11895;48.738;9.320;2023-02-08T17:40:46;32.13;;;15.60;;
23444;SDS011;11895;48.738;9.320;2023-02-08T17:43:14;34.38;;;16.75;;
23444;SDS011;11895;48.738;9.320;2023-02-08T17:45:42;35.42;;;16.55;;
23444;SDS011;11895;48.738;9.320;2023-02-08T17:48:13;29.77;;;16.23;;
23444;SDS011;11895;48.738;9.320;2023-02-08T17:50:42;32.42;;;16.75;;
23444;SDS011;11895;48.738;9.320;2023-02-08T17:53:16;28.63;;;15.88;;
23444;SDS011;11895;48.738;9.320;2023-02-08T17:55:48;36.00;;;17.38;;
23444;SDS011;11895;48.738;9.320;2023-02-08T17:58:15;31.55;;;16.88;;
23444;SDS011;11895;48.738;9.320;2023-02-08T18:00:43;28.23;;;15.80;;
23444;SDS011;11895;48.738;9.320;2023-02-08T18:03:11;30.83;;;16.65;;
23444;SDS011;11895;48.738;9.320;2023-02-08T18:05:42;29.58;;;15.85;;
23444;SDS011;11895;48.738;9.320;2023-02-08T18:08:10;30.60;;;16.42;;
23444;SDS011;11895;48.738;9.320;2023-02-08T18:10:37;39.75;;;17.10;;